Accueil
METAR-TAF:

METAR-TAF

Aéroports :

Aizawl, Inde

latitude: 23-50-18N, longitude: 92-37-13E, altitude: 405 m

Observation

Le bulletin a été fait il y a 2 heures et 17 minutes, à 12:00 UTC
Vent calme
Température 25°C
Humidité 57%
Pression 1012 hPa
Visibilité: 5000 m
brume sèche

METAR: VELP 291200Z 00000KT 5000 HZ NSC 25/16 Q1012 NOSIG

Heure: 19:47 (14:17 UTC)

Prévision

Le bulletin a été fait il y a 6 heures et 17 minutes, à 08:00 UTC
Prévision valable du 29 à 09 UTC au 29 à 18 UTC
Vent 3 kt de ouest/sud-ouest
Visibilité: 5000 m
Quelques nuages à une hauteur de 2000 ft
brume sèche
Evoluant progressivement
du 29 à 13 UTC au 29 à 15 UTC
Vent kt de nord
Visibilité: 3000 m
brume

TAF: VELP 290800Z 2909/2918 25003KT 5000 HZ FEW020 BECMG 2913/2915 00000KT 3000 BR NSC

Observations et prévisions météorologiques de plus de 4000 aéroports (messages METAR et TAF).

Les stations disponibles sont représentées par des disques jaunes et rouges sur la carte.

Passer la souris dessus pour voir le nom de la station.

Cliquer dessus pour voir les observations et prévisions météorologiques.

Pour changer de carte: cliquez sur les boutons verts avec une croix noire pour zoomer, sur le bouton vert avec un tiret pour effectuer un zoom arrière, ou sur les flèches vertes pour les cartes adjacentes.


METAR-TAF: